createdAt,value
2023-05-10T00:00:36.951Z,12.51
2023-05-10T00:03:40.301Z,12.57
2023-05-10T00:06:43.710Z,12.51
2023-05-10T00:09:47.120Z,12.45
2023-05-10T00:12:50.240Z,12.62
2023-05-10T00:15:53.133Z,12.55
2023-05-10T00:18:56.488Z,12.50
2023-05-10T00:22:02.585Z,12.42
2023-05-10T00:25:06.510Z,12.34
2023-05-10T00:28:09.823Z,12.32
2023-05-10T00:31:15.797Z,12.34
2023-05-10T00:34:18.783Z,12.38
2023-05-10T00:37:21.921Z,12.44
2023-05-10T00:40:26.003Z,12.36
2023-05-10T00:43:33.744Z,12.29
2023-05-10T00:46:38.537Z,12.17
2023-05-10T00:49:42.877Z,12.02
2023-05-10T00:52:45.990Z,12.04
2023-05-10T00:55:49.465Z,11.99
2023-05-10T00:58:53.017Z,11.98
2023-05-10T01:01:56.218Z,11.99
2023-05-10T01:05:00.303Z,11.92
2023-05-10T01:08:03.981Z,11.88
2023-05-10T01:11:08.183Z,12.04
2023-05-10T01:14:11.863Z,12.18
2023-05-10T01:17:15.682Z,12.16
2023-05-10T01:20:19.472Z,12.05
2023-05-10T01:23:38.257Z,11.98
2023-05-10T01:26:41.491Z,11.90
2023-05-10T01:30:14.929Z,12.03
2023-05-10T01:33:31.460Z,11.83
2023-05-10T01:36:59.819Z,11.73
2023-05-10T01:40:27.259Z,11.72
2023-05-10T01:43:38.337Z,11.55
2023-05-10T01:46:42.032Z,11.45
2023-05-10T01:49:50.809Z,11.33
2023-05-10T01:52:59.994Z,11.29
2023-05-10T01:56:03.994Z,11.29
2023-05-10T01:59:12.670Z,11.23
2023-05-10T02:02:17.947Z,11.05
2023-05-10T02:05:22.851Z,11.00
2023-05-10T02:08:26.735Z,11.03
2023-05-10T02:11:30.902Z,10.94
2023-05-10T02:14:37.458Z,11.04
2023-05-10T02:17:43.319Z,11.02
2023-05-10T02:20:47.931Z,11.35
2023-05-10T02:23:53.709Z,11.36
2023-05-10T02:26:58.335Z,11.40
2023-05-10T02:30:02.534Z,11.30
2023-05-10T02:33:07.478Z,11.28
2023-05-10T02:36:11.724Z,11.23
2023-05-10T02:39:16.775Z,11.25
2023-05-10T02:42:26.924Z,11.27
2023-05-10T02:45:32.417Z,11.15
2023-05-10T02:48:35.524Z,11.04
2023-05-10T02:51:51.189Z,10.77
2023-05-10T02:54:59.578Z,10.61
2023-05-10T02:58:03.816Z,10.26
2023-05-10T03:01:08.767Z,10.02
2023-05-10T03:04:13.345Z,10.00
2023-05-10T03:07:18.026Z,9.87
2023-05-10T03:10:25.591Z,9.64
2023-05-10T03:13:36.525Z,9.64
2023-05-10T03:16:58.431Z,9.41
2023-05-10T03:20:08.598Z,9.41
2023-05-10T03:23:31.409Z,9.28
2023-05-10T03:26:36.188Z,9.30
2023-05-10T03:29:47.692Z,9.35
2023-05-10T03:32:51.787Z,9.36
2023-05-10T03:35:55.376Z,9.63
2023-05-10T03:38:58.501Z,9.60
2023-05-10T03:42:01.914Z,9.55
2023-05-10T03:45:08.326Z,9.60
2023-05-10T03:48:11.683Z,9.49
2023-05-10T03:51:14.823Z,9.64
2023-05-10T03:54:18.175Z,9.70
2023-05-10T03:57:21.471Z,9.51
2023-05-10T04:00:25.105Z,9.26
2023-05-10T04:03:31.092Z,9.09
2023-05-10T04:06:34.905Z,9.22
2023-05-10T04:09:38.148Z,9.00
2023-05-10T04:12:41.455Z,9.02
2023-05-10T04:15:44.958Z,8.97
2023-05-10T04:18:48.194Z,9.10
2023-05-10T04:21:51.143Z,9.12
2023-05-10T04:24:54.217Z,9.06
2023-05-10T04:27:57.217Z,9.21
2023-05-10T04:31:11.528Z,9.45
2023-05-10T04:34:14.482Z,9.64
2023-05-10T04:37:18.190Z,9.91
2023-05-10T04:40:21.632Z,10.32
2023-05-10T04:43:24.710Z,10.44
2023-05-10T04:46:27.916Z,10.64
2023-05-10T04:49:31.419Z,10.73
2023-05-10T04:52:34.810Z,10.69
2023-05-10T04:55:38.137Z,10.74
2023-05-10T04:58:41.615Z,10.82
2023-05-10T05:01:45.089Z,10.99
2023-05-10T05:04:48.433Z,11.21
2023-05-10T05:07:51.959Z,11.29
2023-05-10T05:10:57.972Z,11.50
2023-05-10T05:14:00.884Z,11.53
2023-05-10T05:17:03.872Z,11.55
2023-05-10T05:20:07.281Z,11.73
2023-05-10T05:23:10.485Z,11.75
2023-05-10T05:26:13.665Z,12.07
2023-05-10T05:29:16.831Z,12.27
2023-05-10T05:32:19.776Z,12.52
2023-05-10T05:35:22.769Z,12.79
2023-05-10T05:38:25.654Z,12.70
2023-05-10T05:41:28.665Z,12.90
2023-05-10T05:44:32.183Z,13.05
2023-05-10T05:47:35.789Z,13.14
2023-05-10T05:50:39.005Z,13.25
2023-05-10T05:53:42.237Z,13.53
2023-05-10T05:56:45.645Z,13.69
2023-05-10T05:59:48.765Z,14.10
2023-05-10T06:02:51.999Z,14.39
2023-05-10T06:05:55.190Z,14.23
2023-05-10T06:08:58.609Z,14.02
2023-05-10T06:12:01.731Z,14.09
2023-05-10T06:15:06.113Z,14.21
2023-05-10T06:18:09.619Z,14.43
2023-05-10T06:21:13.093Z,14.21
2023-05-10T06:24:16.237Z,14.51
2023-05-10T06:27:19.575Z,14.63
2023-05-10T06:30:24.329Z,15.05
2023-05-10T06:33:30.201Z,15.03
2023-05-10T06:36:33.683Z,15.08
2023-05-10T06:39:36.939Z,15.29
2023-05-10T06:42:40.149Z,15.32
2023-05-10T06:45:49.522Z,15.12
2023-05-10T06:48:53.652Z,15.11
2023-05-10T06:51:57.973Z,15.13
2023-05-10T06:55:21.248Z,15.27
2023-05-10T06:58:24.578Z,15.47
2023-05-10T07:01:27.693Z,15.28
2023-05-10T07:04:30.679Z,15.60
2023-05-10T07:07:33.819Z,15.81
2023-05-10T07:10:37.004Z,16.07
2023-05-10T07:13:42.400Z,15.81
2023-05-10T07:16:45.837Z,15.50
2023-05-10T07:19:49.524Z,15.83
2023-05-10T07:22:52.426Z,16.15
2023-05-10T07:25:55.664Z,15.88
2023-05-10T07:29:00.651Z,16.01
2023-05-10T07:32:04.176Z,16.00
2023-05-10T07:35:08.002Z,16.07
2023-05-10T07:38:12.296Z,16.27
2023-05-10T07:41:15.633Z,16.18
2023-05-10T07:44:21.802Z,15.80
2023-05-10T07:47:24.949Z,16.41
2023-05-10T07:50:28.448Z,16.26
2023-05-10T07:53:31.850Z,16.84
2023-05-10T07:56:35.732Z,16.56
2023-05-10T07:59:38.914Z,16.52
2023-05-10T08:02:42.744Z,16.69
2023-05-10T08:05:46.090Z,16.72
2023-05-10T08:08:51.441Z,16.49
2023-05-10T08:11:54.769Z,16.24
2023-05-10T08:14:58.203Z,16.13
2023-05-10T08:18:02.854Z,16.11
2023-05-10T08:21:06.180Z,15.97
2023-05-10T08:24:09.210Z,16.04
2023-05-10T08:27:12.535Z,16.15
2023-05-10T08:30:15.842Z,16.01
2023-05-10T08:33:20.332Z,16.15
2023-05-10T08:36:25.493Z,16.35
2023-05-10T08:39:30.640Z,16.44
2023-05-10T08:42:38.995Z,16.43
2023-05-10T08:45:48.916Z,16.47
2023-05-10T08:48:53.345Z,16.52
2023-05-10T08:51:57.679Z,16.49
2023-05-10T08:55:00.894Z,16.41
2023-05-10T08:58:05.179Z,16.55
2023-05-10T09:01:09.957Z,16.67
2023-05-10T09:04:13.841Z,16.86
2023-05-10T09:07:17.715Z,17.05
2023-05-10T09:10:21.761Z,17.13
2023-05-10T09:13:26.024Z,17.16
2023-05-10T09:16:29.172Z,17.47
2023-05-10T09:19:32.203Z,17.67
2023-05-10T09:22:36.196Z,17.84
2023-05-10T09:25:40.204Z,17.89
2023-05-10T09:28:57.260Z,17.76
2023-05-10T09:32:01.869Z,17.79
2023-05-10T09:35:12.604Z,17.79
2023-05-10T09:38:15.514Z,17.54
2023-05-10T09:41:26.096Z,17.61
2023-05-10T09:44:29.356Z,17.71
2023-05-10T09:47:37.160Z,17.95
2023-05-10T09:50:40.218Z,18.08
2023-05-10T09:53:43.738Z,18.04
2023-05-10T09:56:46.642Z,17.87
2023-05-10T09:59:50.358Z,17.90
2023-05-10T10:02:58.334Z,17.87
2023-05-10T10:06:02.000Z,17.57
2023-05-10T10:09:07.431Z,17.50
2023-05-10T10:12:10.611Z,17.73
2023-05-10T10:15:16.607Z,17.99
2023-05-10T10:18:24.768Z,18.18
2023-05-10T10:21:29.553Z,18.09
2023-05-10T10:24:33.054Z,17.91
2023-05-10T10:27:54.610Z,18.05
2023-05-10T10:31:03.577Z,18.34
2023-05-10T10:34:09.098Z,18.78
2023-05-10T10:37:12.688Z,18.30
2023-05-10T10:40:26.012Z,18.27
2023-05-10T10:43:30.533Z,18.47
2023-05-10T10:46:35.594Z,18.29
2023-05-10T10:49:44.791Z,18.62
2023-05-10T10:52:50.609Z,19.14
2023-05-10T10:56:07.591Z,19.76
2023-05-10T10:59:13.332Z,19.90
2023-05-10T11:02:46.945Z,19.29
2023-05-10T11:05:52.379Z,18.53
2023-05-10T11:08:56.160Z,19.02
2023-05-10T11:12:01.430Z,19.47
2023-05-10T11:15:05.113Z,19.77
2023-05-10T11:18:22.593Z,20.08
2023-05-10T11:21:25.909Z,20.14
2023-05-10T11:24:29.593Z,20.54
2023-05-10T11:27:34.353Z,20.34
2023-05-10T11:30:40.641Z,20.14
2023-05-10T11:33:48.359Z,19.53
2023-05-10T11:36:56.458Z,19.67
2023-05-10T11:39:59.748Z,19.85
2023-05-10T11:43:03.820Z,19.77
2023-05-10T11:46:13.231Z,19.36
2023-05-10T11:49:16.824Z,19.71
2023-05-10T11:52:20.318Z,19.72
2023-05-10T11:55:25.425Z,20.11
2023-05-10T11:58:28.770Z,20.09
2023-05-10T12:01:32.693Z,20.39
2023-05-10T12:04:36.598Z,20.02
2023-05-10T12:07:40.056Z,20.01
2023-05-10T12:10:43.802Z,20.04
2023-05-10T12:13:51.150Z,20.15
2023-05-10T12:16:54.433Z,20.40
2023-05-10T12:20:15.276Z,20.87
2023-05-10T12:23:19.040Z,20.62
2023-05-10T12:26:27.617Z,20.36
2023-05-10T12:29:32.159Z,20.40
2023-05-10T12:32:48.138Z,20.85
2023-05-10T12:35:54.750Z,20.70
2023-05-10T12:39:04.438Z,20.77
2023-05-10T12:42:08.526Z,20.92
2023-05-10T12:45:12.880Z,20.64
2023-05-10T12:48:19.107Z,20.68
2023-05-10T12:51:26.509Z,20.68
2023-05-10T12:54:30.361Z,20.21
2023-05-10T12:57:34.329Z,19.92
2023-05-10T13:00:39.092Z,19.84
2023-05-10T13:03:42.250Z,19.74
2023-05-10T13:06:45.524Z,19.54
2023-05-10T13:09:48.910Z,19.48
2023-05-10T13:12:52.952Z,19.47
2023-05-10T13:15:56.345Z,19.87
2023-05-10T13:19:00.131Z,20.05
2023-05-10T13:22:07.213Z,20.23
2023-05-10T13:25:10.865Z,20.21
2023-05-10T13:28:14.398Z,20.07
2023-05-10T13:31:17.982Z,19.79
2023-05-10T13:34:21.971Z,19.64
2023-05-10T13:37:25.315Z,19.35
2023-05-10T13:40:29.217Z,19.11
2023-05-10T13:43:32.465Z,19.20
2023-05-10T13:46:36.042Z,19.24
2023-05-10T13:49:39.600Z,19.05
2023-05-10T13:52:43.233Z,19.20
2023-05-10T13:55:46.572Z,19.33
2023-05-10T13:58:49.873Z,19.40
2023-05-10T14:01:53.025Z,19.46
2023-05-10T14:04:56.141Z,19.41
2023-05-10T14:07:59.162Z,19.47
2023-05-10T14:11:03.781Z,19.55
2023-05-10T14:14:06.723Z,19.46
2023-05-10T14:17:12.527Z,19.50
2023-05-10T14:20:16.260Z,19.39
2023-05-10T14:23:21.367Z,19.49
2023-05-10T14:26:24.473Z,19.28
2023-05-10T14:29:27.514Z,19.35
2023-05-10T14:32:30.515Z,19.28
2023-05-10T14:35:33.975Z,19.26
2023-05-10T14:38:37.207Z,19.31
2023-05-10T14:41:45.518Z,19.32
2023-05-10T14:44:48.618Z,19.34
2023-05-10T14:47:51.937Z,19.26
2023-05-10T14:50:55.401Z,19.13
2023-05-10T14:53:58.244Z,19.12
2023-05-10T14:57:01.734Z,19.00
2023-05-10T15:00:05.341Z,18.87
2023-05-10T15:03:09.135Z,18.86
2023-05-10T15:06:12.925Z,18.86
2023-05-10T15:09:17.391Z,18.82
2023-05-10T15:12:20.757Z,18.74
2023-05-10T15:15:23.990Z,18.67
2023-05-10T15:18:27.400Z,18.62
2023-05-10T15:21:36.306Z,18.62
2023-05-10T15:24:39.698Z,18.59
2023-05-10T15:27:44.746Z,18.63
2023-05-10T15:30:48.059Z,18.62
2023-05-10T15:33:51.231Z,18.63
2023-05-10T15:36:54.366Z,18.66
2023-05-10T15:40:04.304Z,18.71
2023-05-10T15:43:08.920Z,18.69
2023-05-10T15:46:12.298Z,18.69
2023-05-10T15:49:15.846Z,18.74
2023-05-10T15:52:19.401Z,18.72
2023-05-10T15:55:22.497Z,18.66
2023-05-10T15:58:25.817Z,18.60
2023-05-10T16:01:29.593Z,18.58
2023-05-10T16:04:35.932Z,18.50
2023-05-10T16:07:40.448Z,18.51
2023-05-10T16:10:43.711Z,18.49
2023-05-10T16:13:46.952Z,18.47
2023-05-10T16:16:50.220Z,18.44
2023-05-10T16:19:53.389Z,18.38
2023-05-10T16:22:56.982Z,18.31
2023-05-10T16:26:03.472Z,18.31
2023-05-10T16:29:10.666Z,18.30
2023-05-10T16:32:14.113Z,18.31
2023-05-10T16:35:17.420Z,18.30
2023-05-10T16:38:22.019Z,18.26
2023-05-10T16:41:25.247Z,18.22
2023-05-10T16:44:28.946Z,18.22
2023-05-10T16:47:32.174Z,18.22
2023-05-10T16:50:35.309Z,18.22
2023-05-10T16:53:38.868Z,18.22
2023-05-10T16:56:42.475Z,18.19
2023-05-10T16:59:45.686Z,18.16
2023-05-10T17:02:49.351Z,18.11
2023-05-10T17:05:52.385Z,18.10
2023-05-10T17:08:55.714Z,18.07
2023-05-10T17:11:58.777Z,18.06
2023-05-10T17:15:02.335Z,18.00
2023-05-10T17:18:07.225Z,17.98
2023-05-10T17:21:10.821Z,17.97
2023-05-10T17:24:14.463Z,17.92
2023-05-10T17:27:18.107Z,17.91
2023-05-10T17:30:28.311Z,17.89
2023-05-10T17:33:31.408Z,17.83
2023-05-10T17:36:34.780Z,17.82
2023-05-10T17:39:39.920Z,17.81
2023-05-10T17:42:43.266Z,17.80
2023-05-10T17:45:48.329Z,17.72
2023-05-10T17:48:51.378Z,17.68
2023-05-10T17:51:54.440Z,17.69
2023-05-10T17:54:58.076Z,17.66
2023-05-10T17:58:01.091Z,17.57
2023-05-10T18:01:04.960Z,17.55
2023-05-10T18:04:08.688Z,17.56
2023-05-10T18:07:11.887Z,17.45
2023-05-10T18:10:15.159Z,17.45
2023-05-10T18:13:18.275Z,17.38
2023-05-10T18:16:21.513Z,17.33
2023-05-10T18:19:27.771Z,17.20
2023-05-10T18:22:31.102Z,17.11
2023-05-10T18:25:34.594Z,17.11
2023-05-10T18:28:37.818Z,17.07
2023-05-10T18:31:41.469Z,17.03
2023-05-10T18:34:44.831Z,17.05
2023-05-10T18:37:48.936Z,17.02
2023-05-10T18:40:52.531Z,16.95
2023-05-10T18:43:56.246Z,16.88
2023-05-10T18:47:00.707Z,16.86
2023-05-10T18:50:07.753Z,16.76
2023-05-10T18:53:11.347Z,16.80
2023-05-10T18:56:14.360Z,16.75
2023-05-10T18:59:17.392Z,16.77
2023-05-10T19:02:21.044Z,16.71
2023-05-10T19:05:30.044Z,16.55
2023-05-10T19:08:33.196Z,16.55
2023-05-10T19:11:36.458Z,16.50
2023-05-10T19:14:39.559Z,16.50
2023-05-10T19:17:45.705Z,16.50
2023-05-10T19:20:49.643Z,16.38
2023-05-10T19:23:53.772Z,16.47
2023-05-10T19:26:58.437Z,16.46
2023-05-10T19:30:01.756Z,16.51
2023-05-10T19:33:06.541Z,16.58
2023-05-10T19:36:09.954Z,16.58
2023-05-10T19:39:13.415Z,16.55
2023-05-10T19:42:18.212Z,16.51
2023-05-10T19:45:21.910Z,16.44
2023-05-10T19:48:25.581Z,16.33
2023-05-10T19:51:29.115Z,16.31
2023-05-10T19:54:32.833Z,16.28
2023-05-10T19:57:36.366Z,16.15
2023-05-10T20:00:39.947Z,16.20
2023-05-10T20:03:42.905Z,16.15
2023-05-10T20:06:46.615Z,16.19
2023-05-10T20:09:49.953Z,16.12
2023-05-10T20:12:53.286Z,16.10
2023-05-10T20:15:58.383Z,15.99
2023-05-10T20:19:01.929Z,15.96
2023-05-10T20:22:05.583Z,15.92
2023-05-10T20:25:09.546Z,15.90
2023-05-10T20:28:13.464Z,15.84
2023-05-10T20:31:17.661Z,15.85
2023-05-10T20:34:21.141Z,15.86
2023-05-10T20:37:24.474Z,15.86
2023-05-10T20:40:28.318Z,15.85
2023-05-10T20:43:32.070Z,15.86
2023-05-10T20:46:36.119Z,15.87
2023-05-10T20:49:39.354Z,15.79
2023-05-10T20:52:42.893Z,15.80
2023-05-10T20:55:45.988Z,15.65
2023-05-10T20:58:49.003Z,15.65
2023-05-10T21:01:52.356Z,15.62
2023-05-10T21:04:57.740Z,15.62
2023-05-10T21:08:01.107Z,15.60
2023-05-10T21:11:07.526Z,15.60
2023-05-10T21:14:13.827Z,15.60
2023-05-10T21:17:18.149Z,15.50
2023-05-10T21:20:23.729Z,15.50
2023-05-10T21:23:26.974Z,15.47
2023-05-10T21:26:30.779Z,15.46
2023-05-10T21:29:33.844Z,15.37
2023-05-10T21:32:37.120Z,15.36
2023-05-10T21:35:42.981Z,15.35
2023-05-10T21:38:46.979Z,15.33
2023-05-10T21:41:50.133Z,15.31
2023-05-10T21:44:53.944Z,15.26
2023-05-10T21:47:57.163Z,15.23
2023-05-10T21:51:00.942Z,15.11
2023-05-10T21:54:04.015Z,15.18
2023-05-10T21:57:07.261Z,15.12
2023-05-10T22:00:11.127Z,15.07
2023-05-10T22:03:15.727Z,15.06
2023-05-10T22:06:18.860Z,15.01
2023-05-10T22:09:24.500Z,14.88
2023-05-10T22:12:27.987Z,14.92
2023-05-10T22:15:34.120Z,14.84
2023-05-10T22:18:38.864Z,14.88
2023-05-10T22:21:42.181Z,14.90
2023-05-10T22:24:45.887Z,14.86
2023-05-10T22:27:49.253Z,14.77
2023-05-10T22:30:52.420Z,14.73
2023-05-10T22:33:55.854Z,14.67
2023-05-10T22:36:59.842Z,14.63
2023-05-10T22:40:03.930Z,14.63
2023-05-10T22:43:07.123Z,14.48
2023-05-10T22:46:10.766Z,14.54
2023-05-10T22:49:14.088Z,14.59
2023-05-10T22:52:19.639Z,14.54
2023-05-10T22:55:25.594Z,14.36
2023-05-10T22:58:28.673Z,14.41
2023-05-10T23:01:31.741Z,14.43
2023-05-10T23:04:35.178Z,14.52
2023-05-10T23:07:38.210Z,14.46
2023-05-10T23:10:41.230Z,14.42
2023-05-10T23:13:44.816Z,14.38
2023-05-10T23:16:47.798Z,14.44
2023-05-10T23:19:50.753Z,14.40
2023-05-10T23:22:54.101Z,14.35
2023-05-10T23:25:57.365Z,14.24
2023-05-10T23:29:01.805Z,14.21
2023-05-10T23:32:05.103Z,14.27
2023-05-10T23:35:08.999Z,14.14
2023-05-10T23:38:12.372Z,14.10
2023-05-10T23:41:15.314Z,14.08
2023-05-10T23:44:20.361Z,13.97
2023-05-10T23:47:23.318Z,13.78
2023-05-10T23:50:26.434Z,13.90
2023-05-10T23:53:29.438Z,13.87
2023-05-10T23:56:32.449Z,13.78
2023-05-10T23:59:36.154Z,13.77
